createdAt,value
2019-05-06T00:02:01.390Z,3.10
2019-05-06T00:04:34.038Z,3.10
2019-05-06T00:07:04.974Z,3.10
2019-05-06T00:09:35.916Z,3.00
2019-05-06T00:12:06.829Z,3.00
2019-05-06T00:14:37.756Z,3.00
2019-05-06T00:17:08.932Z,3.00
2019-05-06T00:19:39.881Z,3.10
2019-05-06T00:22:10.815Z,3.00
2019-05-06T00:24:54.948Z,3.00
2019-05-06T00:27:34.107Z,3.10
2019-05-06T00:30:04.933Z,3.00
2019-05-06T00:32:35.929Z,3.00
2019-05-06T00:35:07.309Z,3.00
2019-05-06T00:37:38.166Z,2.90
2019-05-06T00:40:15.836Z,2.90
2019-05-06T00:43:06.680Z,2.80
2019-05-06T00:45:37.510Z,2.80
2019-05-06T00:48:08.223Z,2.80
2019-05-06T00:50:39.108Z,2.80
2019-05-06T00:53:14.067Z,2.80
2019-05-06T00:55:44.712Z,2.80
2019-05-06T00:58:16.670Z,2.80
2019-05-06T01:00:47.542Z,2.80
2019-05-06T01:03:18.367Z,2.80
2019-05-06T01:05:49.459Z,2.70
2019-05-06T01:08:20.261Z,2.60
2019-05-06T01:10:51.056Z,2.60
2019-05-06T01:13:30.969Z,2.60
2019-05-06T01:16:04.112Z,2.50
2019-05-06T01:18:34.477Z,2.50
2019-05-06T01:21:11.391Z,2.50
2019-05-06T01:23:44.005Z,2.50
2019-05-06T01:26:15.838Z,2.40
2019-05-06T01:28:46.784Z,2.40
2019-05-06T01:31:17.534Z,2.40
2019-05-06T01:33:48.488Z,2.30
2019-05-06T01:36:19.295Z,2.30
2019-05-06T01:39:20.931Z,2.20
2019-05-06T01:42:04.516Z,2.20
2019-05-06T01:44:35.443Z,2.10
2019-05-06T01:47:06.926Z,2.20
2019-05-06T01:49:37.961Z,2.10
2019-05-06T01:52:08.758Z,2.10
2019-05-06T01:54:39.610Z,2.10
2019-05-06T01:57:10.415Z,2.10
2019-05-06T01:59:41.261Z,2.00
2019-05-06T02:02:14.154Z,2.10
2019-05-06T02:04:44.580Z,2.10
2019-05-06T02:07:15.407Z,2.00
2019-05-06T02:09:46.297Z,2.10
2019-05-06T02:12:17.089Z,2.00
2019-05-06T02:14:47.877Z,2.00
2019-05-06T02:17:18.700Z,2.00
2019-05-06T02:19:49.473Z,2.00
2019-05-06T02:22:30.653Z,2.00
2019-05-06T02:25:06.584Z,2.00
2019-05-06T02:27:37.474Z,1.90
2019-05-06T02:30:25.705Z,1.90
2019-05-06T02:33:04.340Z,1.90
2019-05-06T02:35:39.590Z,1.80
2019-05-06T02:38:32.576Z,1.80
2019-05-06T02:40:56.978Z,1.80
2019-05-06T02:43:27.860Z,1.80
2019-05-06T02:45:59.333Z,1.70
2019-05-06T02:48:55.124Z,1.70
2019-05-06T02:51:27.803Z,1.80
2019-05-06T02:53:58.679Z,1.70
2019-05-06T02:56:33.423Z,1.70
2019-05-06T02:59:04.435Z,1.80
2019-05-06T03:01:35.268Z,1.70
2019-05-06T03:04:07.133Z,1.70
2019-05-06T03:06:38.261Z,1.70
2019-05-06T03:09:09.160Z,1.80
2019-05-06T03:11:39.946Z,1.80
2019-05-06T03:14:13.621Z,2.00
2019-05-06T03:16:44.103Z,2.10
2019-05-06T03:19:15.314Z,2.40
2019-05-06T03:22:08.148Z,2.50
2019-05-06T03:24:46.952Z,2.70
2019-05-06T03:27:17.825Z,2.90
2019-05-06T03:29:48.628Z,3.00
2019-05-06T03:32:25.240Z,3.10
2019-05-06T03:35:16.629Z,3.20
2019-05-06T03:37:24.566Z,3.20
2019-05-06T03:39:55.466Z,3.30
2019-05-06T03:42:26.716Z,3.30
2019-05-06T03:45:04.271Z,3.30
2019-05-06T03:47:47.975Z,3.40
2019-05-06T03:50:19.165Z,3.30
2019-05-06T03:52:50.342Z,3.40
2019-05-06T03:55:23.421Z,3.40
2019-05-06T03:57:56.052Z,3.40
2019-05-06T04:00:26.895Z,3.50
2019-05-06T04:02:57.763Z,3.50
2019-05-06T04:05:28.646Z,3.60
2019-05-06T04:08:03.626Z,3.60
2019-05-06T04:10:36.703Z,3.60
2019-05-06T04:13:06.955Z,3.70
2019-05-06T04:15:56.344Z,3.70
2019-05-06T04:18:28.371Z,3.80
2019-05-06T04:21:08.779Z,3.80
2019-05-06T04:23:57.890Z,3.80
2019-05-06T04:27:04.139Z,3.80
2019-05-06T04:29:35.596Z,3.90
2019-05-06T04:32:06.568Z,4.00
2019-05-06T04:34:37.899Z,4.10
2019-05-06T04:37:09.046Z,4.20
2019-05-06T04:39:43.265Z,4.40
2019-05-06T04:42:13.878Z,4.50
2019-05-06T04:44:45.022Z,4.80
2019-05-06T04:47:15.891Z,5.10
2019-05-06T04:49:47.022Z,5.30
2019-05-06T04:52:18.069Z,5.50
2019-05-06T04:54:48.838Z,5.60
2019-05-06T04:57:20.010Z,5.60
2019-05-06T04:59:53.967Z,5.70
2019-05-06T05:02:23.390Z,5.70
2019-05-06T05:04:54.513Z,5.70
2019-05-06T05:07:25.744Z,5.80
2019-05-06T05:10:07.815Z,5.90
2019-05-06T05:12:47.700Z,6.00
2019-05-06T05:15:43.249Z,6.20
2019-05-06T05:18:35.936Z,6.40
2019-05-06T05:21:06.786Z,6.60
2019-05-06T05:23:38.250Z,6.80
2019-05-06T05:26:11.988Z,7.00
2019-05-06T05:28:43.028Z,7.20
2019-05-06T05:31:14.245Z,7.40
2019-05-06T05:33:47.680Z,7.70
2019-05-06T05:36:18.799Z,8.00
2019-05-06T05:38:52.080Z,8.10
2019-05-06T05:41:23.333Z,8.10
2019-05-06T05:44:02.392Z,8.10
2019-05-06T05:46:33.417Z,8.10
2019-05-06T05:49:22.596Z,8.00
2019-05-06T05:51:54.471Z,8.00
2019-05-06T05:54:25.652Z,8.20
2019-05-06T05:56:56.822Z,8.40
2019-05-06T05:59:28.055Z,8.70
2019-05-06T06:01:59.011Z,9.10
2019-05-06T06:04:32.031Z,10.00
2019-05-06T06:07:02.889Z,10.40
2019-05-06T06:09:39.179Z,10.70
2019-05-06T06:12:11.943Z,11.00
2019-05-06T06:14:55.640Z,11.60
2019-05-06T06:17:37.886Z,12.20
2019-05-06T06:20:26.426Z,12.90
2019-05-06T06:23:00.403Z,14.10
2019-05-06T06:25:33.429Z,15.20
2019-05-06T06:28:04.180Z,15.60
2019-05-06T06:30:45.641Z,15.70
2019-05-06T06:33:16.802Z,16.40
2019-05-06T06:36:06.805Z,17.60
2019-05-06T06:39:12.479Z,18.80
2019-05-06T06:41:43.557Z,19.90
2019-05-06T06:44:17.574Z,19.80
2019-05-06T06:46:48.436Z,19.80
2019-05-06T06:49:19.416Z,20.00
2019-05-06T06:51:53.158Z,21.60
2019-05-06T06:54:24.160Z,23.50
2019-05-06T06:57:08.905Z,24.10
2019-05-06T06:59:48.400Z,25.40
2019-05-06T07:02:34.482Z,28.00
2019-05-06T07:05:25.503Z,28.70
2019-05-06T07:07:48.464Z,30.00
2019-05-06T07:10:36.772Z,29.70
2019-05-06T07:13:07.824Z,28.80
2019-05-06T07:15:38.752Z,28.00
2019-05-06T07:18:09.634Z,27.10
2019-05-06T07:20:58.615Z,26.50
2019-05-06T07:23:32.538Z,26.30
2019-05-06T07:26:03.161Z,26.10
2019-05-06T07:28:34.182Z,25.90
2019-05-06T07:31:20.678Z,26.00
2019-05-06T07:33:38.687Z,25.90
2019-05-06T07:36:09.527Z,25.70
2019-05-06T07:38:49.786Z,25.30
2019-05-06T07:41:29.637Z,25.00
2019-05-06T07:44:23.292Z,24.80
2019-05-06T07:47:04.751Z,24.80
2019-05-06T07:49:35.693Z,24.90
2019-05-06T07:52:06.581Z,25.10
2019-05-06T07:54:37.429Z,25.10
2019-05-06T07:57:08.303Z,24.80
2019-05-06T07:59:39.206Z,24.60
2019-05-06T08:02:10.045Z,24.30
2019-05-06T08:04:42.100Z,23.80
2019-05-06T08:07:13.060Z,23.00
2019-05-06T08:09:43.981Z,22.30
2019-05-06T08:12:15.036Z,21.90
2019-05-06T08:14:45.871Z,21.50
2019-05-06T08:17:22.651Z,21.10
2019-05-06T08:19:53.809Z,20.60
2019-05-06T08:22:45.728Z,20.20
2019-05-06T08:25:16.650Z,19.80
2019-05-06T08:27:49.503Z,19.80
2019-05-06T08:30:20.168Z,19.90
2019-05-06T08:32:52.886Z,19.90
2019-05-06T08:35:23.505Z,19.70
2019-05-06T08:37:54.628Z,19.50
2019-05-06T08:40:26.547Z,19.40
2019-05-06T08:42:57.571Z,19.20
2019-05-06T08:45:28.436Z,18.80
2019-05-06T08:47:59.423Z,18.40
2019-05-06T08:50:36.870Z,17.90
2019-05-06T08:53:26.965Z,17.50
2019-05-06T08:55:57.841Z,17.30
2019-05-06T08:58:47.638Z,17.40
2019-05-06T09:01:32.521Z,17.30
2019-05-06T09:04:11.368Z,17.10
2019-05-06T09:06:36.669Z,16.90
2019-05-06T09:09:09.240Z,16.80
2019-05-06T09:11:42.896Z,17.00
2019-05-06T09:14:13.911Z,17.60
2019-05-06T09:16:45.120Z,18.10
2019-05-06T09:19:16.038Z,18.30
2019-05-06T09:21:46.920Z,18.30
2019-05-06T09:24:18.078Z,18.10
2019-05-06T09:27:03.829Z,18.10
2019-05-06T09:29:45.033Z,18.00
2019-05-06T09:32:37.792Z,18.00
2019-05-06T09:35:09.617Z,18.20
2019-05-06T09:37:42.879Z,18.50
2019-05-06T09:40:13.360Z,18.70
2019-05-06T09:42:44.317Z,18.80
2019-05-06T09:45:15.814Z,18.80
2019-05-06T09:48:12.857Z,18.90
2019-05-06T09:50:46.605Z,18.90
2019-05-06T09:53:23.148Z,18.90
2019-05-06T09:56:18.925Z,19.00
2019-05-06T09:58:49.878Z,19.10
2019-05-06T10:01:22.507Z,19.10
2019-05-06T10:03:53.970Z,19.10
2019-05-06T10:06:24.913Z,19.30
2019-05-06T10:08:55.864Z,19.50
2019-05-06T10:11:26.743Z,19.60
2019-05-06T10:13:57.897Z,19.90
2019-05-06T10:16:28.975Z,20.50
2019-05-06T10:19:02.447Z,21.10
2019-05-06T10:21:32.646Z,21.90
2019-05-06T10:24:03.955Z,23.20
2019-05-06T10:26:39.685Z,24.00
2019-05-06T10:29:28.205Z,25.20
2019-05-06T10:32:36.181Z,26.90
2019-05-06T10:35:08.109Z,28.80
2019-05-06T10:37:49.649Z,29.90
2019-05-06T10:40:27.590Z,30.00
2019-05-06T10:43:11.448Z,29.70
2019-05-06T10:45:42.691Z,29.20
2019-05-06T10:48:13.710Z,28.30
2019-05-06T10:50:48.431Z,27.10
2019-05-06T10:53:23.006Z,25.70
2019-05-06T10:55:57.922Z,24.60
2019-05-06T10:58:28.855Z,23.80
2019-05-06T11:01:18.767Z,23.30
2019-05-06T11:03:49.760Z,22.90
2019-05-06T11:06:22.106Z,22.70
2019-05-06T11:08:53.311Z,22.30
2019-05-06T11:11:32.719Z,21.90
2019-05-06T11:13:56.874Z,21.70
2019-05-06T11:16:27.783Z,21.70
2019-05-06T11:18:59.040Z,21.70
2019-05-06T11:21:29.959Z,21.90
2019-05-06T11:24:00.952Z,21.90
2019-05-06T11:26:31.895Z,21.90
2019-05-06T11:29:07.594Z,21.70
2019-05-06T11:31:57.406Z,21.50
2019-05-06T11:34:58.957Z,21.30
2019-05-06T11:37:54.389Z,21.10
2019-05-06T11:40:24.620Z,20.70
2019-05-06T11:42:55.612Z,20.40
2019-05-06T11:45:26.490Z,20.20
2019-05-06T11:47:57.350Z,19.80
2019-05-06T11:50:28.211Z,19.40
2019-05-06T11:52:59.173Z,18.90
2019-05-06T11:55:34.425Z,18.50
2019-05-06T11:58:02.796Z,18.10
2019-05-06T12:00:38.010Z,17.70
2019-05-06T12:03:08.983Z,17.30
2019-05-06T12:05:41.844Z,17.00
2019-05-06T12:08:15.376Z,16.70
2019-05-06T12:10:45.463Z,16.40
2019-05-06T12:13:16.376Z,16.20
2019-05-06T12:15:47.993Z,15.90
2019-05-06T12:18:18.912Z,15.80
2019-05-06T12:20:52.619Z,15.60
2019-05-06T12:23:22.644Z,15.50
2019-05-06T12:25:53.569Z,15.40
2019-05-06T12:28:24.463Z,15.40
2019-05-06T12:30:55.468Z,15.40
2019-05-06T12:33:34.551Z,15.40
2019-05-06T12:36:22.404Z,15.60
2019-05-06T12:39:15.715Z,15.80
2019-05-06T12:42:16.006Z,16.10
2019-05-06T12:45:03.521Z,16.50
2019-05-06T12:47:56.509Z,17.00
2019-05-06T12:50:27.333Z,17.50
2019-05-06T12:52:58.204Z,17.80
2019-05-06T12:55:29.068Z,17.90
2019-05-06T12:57:59.967Z,18.00
2019-05-06T13:00:32.921Z,18.00
2019-05-06T13:03:04.030Z,18.00
2019-05-06T13:05:35.029Z,18.00
2019-05-06T13:08:06.778Z,17.90
2019-05-06T13:10:37.818Z,17.70
2019-05-06T13:13:09.218Z,17.70
2019-05-06T13:15:40.164Z,17.70
2019-05-06T13:18:11.233Z,17.90
2019-05-06T13:20:49.519Z,17.90
2019-05-06T13:23:39.525Z,18.00
2019-05-06T13:26:12.695Z,18.00
2019-05-06T13:28:47.123Z,18.00
2019-05-06T13:32:56.998Z,18.10
2019-05-06T13:33:55.752Z,18.20
2019-05-06T13:36:26.840Z,18.40
2019-05-06T13:39:13.358Z,18.60
2019-05-06T13:41:32.699Z,18.90
2019-05-06T13:44:14.841Z,19.00
2019-05-06T13:46:52.874Z,19.00
2019-05-06T13:49:42.819Z,18.90
2019-05-06T13:52:18.553Z,18.60
2019-05-06T13:54:49.790Z,18.50
2019-05-06T13:57:20.821Z,18.50
2019-05-06T13:59:53.253Z,18.70
2019-05-06T14:02:43.691Z,18.90
2019-05-06T14:05:15.641Z,19.10
2019-05-06T14:07:46.588Z,19.30
2019-05-06T14:10:17.444Z,19.20
2019-05-06T14:12:48.303Z,19.20
2019-05-06T14:15:19.483Z,19.00
2019-05-06T14:17:52.460Z,18.80
2019-05-06T14:20:23.147Z,18.70
2019-05-06T14:22:55.010Z,18.60
2019-05-06T14:25:43.578Z,18.60
2019-05-06T14:28:22.216Z,18.40
2019-05-06T14:30:56.798Z,18.20
2019-05-06T14:33:27.693Z,17.90
2019-05-06T14:35:58.596Z,17.60
2019-05-06T14:38:32.111Z,17.20
2019-05-06T14:41:26.727Z,16.80
2019-05-06T14:43:55.315Z,16.50
2019-05-06T14:46:33.140Z,16.20
2019-05-06T14:49:04.373Z,15.90
2019-05-06T14:51:35.461Z,15.80
2019-05-06T14:54:06.353Z,15.70
2019-05-06T14:56:50.058Z,15.80
2019-05-06T14:59:23.268Z,15.90
2019-05-06T15:01:53.888Z,16.00
2019-05-06T15:04:24.863Z,16.10
2019-05-06T15:06:55.858Z,16.30
2019-05-06T15:09:26.806Z,16.50
2019-05-06T15:11:58.222Z,16.70
2019-05-06T15:14:29.071Z,16.60
2019-05-06T15:17:02.043Z,16.50
2019-05-06T15:19:32.485Z,16.30
2019-05-06T15:22:03.381Z,16.10
2019-05-06T15:24:34.764Z,16.10
2019-05-06T15:27:05.777Z,16.10
2019-05-06T15:29:37.053Z,16.10
2019-05-06T15:32:19.424Z,16.10
2019-05-06T15:35:12.827Z,16.10
2019-05-06T15:38:09.488Z,16.00
2019-05-06T15:40:40.456Z,15.90
2019-05-06T15:43:12.722Z,15.70
2019-05-06T15:45:43.607Z,15.50
2019-05-06T15:48:14.507Z,15.30
2019-05-06T15:50:46.084Z,15.10
2019-05-06T15:53:16.971Z,15.00
2019-05-06T15:55:47.890Z,14.80
2019-05-06T15:58:18.779Z,14.60
2019-05-06T16:00:49.640Z,14.50
2019-05-06T16:03:22.616Z,14.40
2019-05-06T16:05:55.270Z,14.30
2019-05-06T16:08:25.804Z,14.20
2019-05-06T16:10:58.880Z,14.20
2019-05-06T16:13:29.468Z,14.20
2019-05-06T16:16:02.775Z,14.30
2019-05-06T16:18:33.140Z,14.40
2019-05-06T16:21:04.079Z,14.40
2019-05-06T16:23:42.296Z,14.40
2019-05-06T16:26:13.361Z,14.40
2019-05-06T16:28:44.955Z,14.40
2019-05-06T16:31:16.138Z,14.50
2019-05-06T16:33:47.146Z,14.40
2019-05-06T16:36:18.110Z,14.30
2019-05-06T16:38:49.119Z,14.30
2019-05-06T16:41:22.365Z,14.20
2019-05-06T16:43:52.804Z,14.20
2019-05-06T16:46:23.772Z,14.20
2019-05-06T16:48:54.744Z,14.10
2019-05-06T16:51:25.848Z,14.00
2019-05-06T16:53:56.882Z,14.00
2019-05-06T16:56:36.519Z,13.90
2019-05-06T16:59:07.613Z,13.80
2019-05-06T17:01:42.476Z,13.70
2019-05-06T17:04:23.048Z,13.60
2019-05-06T17:06:54.363Z,13.50
2019-05-06T17:09:27.697Z,13.50
2019-05-06T17:11:58.321Z,13.40
2019-05-06T17:14:29.334Z,13.40
2019-05-06T17:17:00.272Z,13.30
2019-05-06T17:19:32.428Z,13.20
2019-05-06T17:22:06.797Z,13.10
2019-05-06T17:24:37.709Z,13.00
2019-05-06T17:27:08.793Z,12.90
2019-05-06T17:30:01.504Z,12.90
2019-05-06T17:32:48.163Z,12.90
2019-05-06T17:35:19.215Z,12.80
2019-05-06T17:38:13.319Z,12.80
2019-05-06T17:40:44.400Z,12.70
2019-05-06T17:43:15.425Z,12.60
2019-05-06T17:46:02.354Z,12.50
2019-05-06T17:48:48.405Z,12.50
2019-05-06T17:51:22.520Z,12.40
2019-05-06T17:53:54.356Z,12.50
2019-05-06T17:56:25.488Z,12.50
2019-05-06T17:58:56.561Z,12.50
2019-05-06T18:01:46.341Z,12.50
2019-05-06T18:04:17.223Z,12.50
2019-05-06T18:06:48.510Z,12.50
2019-05-06T18:09:22.185Z,12.50
2019-05-06T18:11:58.888Z,12.50
2019-05-06T18:14:25.027Z,12.50
2019-05-06T18:16:55.928Z,12.50
2019-05-06T18:19:26.790Z,12.40
2019-05-06T18:21:57.731Z,12.30
2019-05-06T18:24:28.657Z,12.30
2019-05-06T18:26:59.808Z,12.20
2019-05-06T18:29:33.201Z,12.20
2019-05-06T18:32:03.907Z,12.20
2019-05-06T18:34:34.876Z,12.20
2019-05-06T18:37:05.748Z,12.20
2019-05-06T18:39:36.719Z,12.10
2019-05-06T18:42:16.769Z,11.90
2019-05-06T18:44:42.101Z,11.70
2019-05-06T18:47:12.652Z,11.60
2019-05-06T18:49:43.557Z,11.50
2019-05-06T18:52:14.693Z,11.40
2019-05-06T18:54:45.925Z,11.30
2019-05-06T18:57:16.883Z,11.20
2019-05-06T18:59:47.737Z,11.20
2019-05-06T19:02:19.228Z,11.10
2019-05-06T19:05:05.017Z,11.00
2019-05-06T19:07:35.933Z,10.90
2019-05-06T19:10:12.886Z,10.80
2019-05-06T19:12:43.813Z,10.80
2019-05-06T19:15:14.855Z,10.70
2019-05-06T19:17:45.661Z,10.70
2019-05-06T19:20:16.581Z,10.60
2019-05-06T19:22:47.454Z,10.60
2019-05-06T19:25:18.610Z,10.60
2019-05-06T19:27:49.467Z,10.60
2019-05-06T19:30:22.480Z,10.70
2019-05-06T19:32:53.470Z,10.60
2019-05-06T19:35:24.391Z,10.60
2019-05-06T19:37:55.348Z,10.60
2019-05-06T19:40:27.477Z,10.60
2019-05-06T19:42:58.687Z,10.60
2019-05-06T19:45:29.636Z,10.60
2019-05-06T19:48:02.693Z,10.60
2019-05-06T19:50:33.171Z,10.50
2019-05-06T19:53:04.044Z,10.50
2019-05-06T19:55:35.984Z,10.50
2019-05-06T19:58:06.866Z,10.50
2019-05-06T20:00:37.775Z,10.50
2019-05-06T20:03:08.755Z,10.50
2019-05-06T20:05:59.631Z,10.50
2019-05-06T20:08:38.041Z,10.50
2019-05-06T20:11:18.625Z,10.50
2019-05-06T20:13:49.421Z,10.30
2019-05-06T20:16:20.341Z,10.00
2019-05-06T20:18:52.615Z,9.80
2019-05-06T20:21:23.590Z,9.50
2019-05-06T20:23:54.423Z,9.30
2019-05-06T20:26:25.350Z,9.10
2019-05-06T20:28:56.206Z,9.00
2019-05-06T20:31:27.168Z,8.90
2019-05-06T20:33:57.968Z,8.80
2019-05-06T20:36:28.881Z,8.70
2019-05-06T20:38:59.776Z,8.50
2019-05-06T20:41:32.750Z,8.50
2019-05-06T20:44:03.430Z,8.40
2019-05-06T20:46:34.429Z,8.30
2019-05-06T20:49:05.370Z,8.20
2019-05-06T20:51:36.261Z,8.10
2019-05-06T20:54:07.224Z,8.00
2019-05-06T20:56:38.074Z,7.90
2019-05-06T20:59:08.970Z,7.80
2019-05-06T21:01:42.242Z,7.70
2019-05-06T21:04:13.168Z,7.60
2019-05-06T21:06:44.129Z,7.50
2019-05-06T21:09:15.030Z,7.40
2019-05-06T21:11:45.939Z,7.40
2019-05-06T21:14:16.831Z,7.30
2019-05-06T21:16:48.175Z,7.30
2019-05-06T21:19:19.507Z,7.20
2019-05-06T21:21:52.577Z,7.10
2019-05-06T21:24:24.483Z,7.00
2019-05-06T21:26:55.335Z,6.90
2019-05-06T21:29:26.307Z,6.90
2019-05-06T21:31:57.228Z,7.00
2019-05-06T21:34:28.105Z,7.10
2019-05-06T21:37:02.630Z,7.20
2019-05-06T21:39:33.061Z,7.30
2019-05-06T21:42:03.950Z,7.50
2019-05-06T21:44:34.824Z,7.60
2019-05-06T21:47:05.789Z,7.70
2019-05-06T21:49:36.963Z,7.80
2019-05-06T21:52:07.847Z,7.90
2019-05-06T21:54:38.703Z,8.00
2019-05-06T21:57:09.625Z,8.10
2019-05-06T21:59:42.613Z,8.10
2019-05-06T22:02:14.658Z,8.20
2019-05-06T22:04:45.580Z,8.20
2019-05-06T22:07:16.498Z,8.20
2019-05-06T22:09:47.393Z,8.10
2019-05-06T22:12:18.249Z,8.10
2019-05-06T22:14:49.077Z,8.00
2019-05-06T22:17:22.443Z,7.90
2019-05-06T22:19:53.473Z,7.80
2019-05-06T22:22:26.561Z,7.70
2019-05-06T22:24:58.049Z,7.70
2019-05-06T22:27:29.757Z,7.60
2019-05-06T22:30:03.028Z,7.60
2019-05-06T22:32:45.476Z,7.60
2019-05-06T22:35:17.248Z,7.60
2019-05-06T22:37:49.187Z,7.50
2019-05-06T22:40:23.482Z,7.50
2019-05-06T22:42:53.572Z,7.50
2019-05-06T22:45:24.485Z,7.30
2019-05-06T22:47:55.707Z,7.10
2019-05-06T22:50:26.601Z,7.00
2019-05-06T22:52:57.502Z,6.90
2019-05-06T22:55:28.415Z,6.80
2019-05-06T22:57:59.419Z,6.60
2019-05-06T23:00:33.251Z,6.50
2019-05-06T23:03:08.438Z,6.40
2019-05-06T23:05:39.214Z,6.40
2019-05-06T23:08:12.167Z,6.30
2019-05-06T23:10:42.487Z,6.20
2019-05-06T23:13:13.461Z,6.10
2019-05-06T23:15:44.262Z,6.00
2019-05-06T23:18:15.185Z,5.90
2019-05-06T23:20:46.425Z,5.90
2019-05-06T23:23:17.308Z,5.80
2019-05-06T23:26:07.082Z,5.70
2019-05-06T23:28:38.288Z,5.70
2019-05-06T23:31:09.110Z,5.60
2019-05-06T23:33:39.941Z,5.60
2019-05-06T23:36:12.095Z,5.50
2019-05-06T23:39:18.522Z,5.50
2019-05-06T23:42:24.969Z,5.40
2019-05-06T23:45:32.428Z,5.40
2019-05-06T23:48:38.873Z,5.30
2019-05-06T23:51:44.863Z,5.20
2019-05-06T23:54:52.266Z,5.20
2019-05-06T23:57:22.503Z,5.10
2019-05-06T23:59:54.654Z,5.00
